Terminal Aerodrome Forecast
Issued by NWS

Home | Current Version | Previous Version | Graphics & Text | Print | Product List | Glossary On
Versions: 1 2 3 4 5 6 7 8 9 10 11 12 13 14 15 16 17
110
FTUS43 KABR 281240 AAA
TAFMBG
TAF AMD
KMBG 281240Z 2813/2912 01004KT P6SM VCSH SCT014 OVC040
      TEMPO 2813/2816 BKN015
     FM281600 04008KT P6SM VCSH OVC015
     FM281800 05010KT P6SM OVC025
     FM282000 06010KT P6SM OVC035=

USA.gov is the U.S. government's official web portal to all federal, state and local government web resources and services.